TimeCST,TemperatureF,Dew PointF,Humidity,Sea Level PressureIn,VisibilityMPH,Wind Direction,Wind SpeedMPH,Gust SpeedMPH,PrecipitationIn,Events,Conditions,WindDirDegrees,DateUTC
12:53 AM,53.1,44.1,71,30.20,10.0,Calm,Calm,-,N/A,,Overcast,0,2012-11-20 06:53:00
1:53 AM,53.6,46.4,77,30.16,10.0,Calm,Calm,-,N/A,,Overcast,0,2012-11-20 07:53:00
2:53 AM,54.0,46.9,77,30.20,10.0,Calm,Calm,-,0.00,Rain,Light Rain,0,2012-11-20 08:53:00
3:53 AM,54.0,48.0,80,30.20,10.0,Calm,Calm,-,0.00,,Overcast,0,2012-11-20 09:53:00
4:53 AM,54.0,46.0,75,30.21,10.0,Calm,Calm,-,N/A,,Overcast,0,2012-11-20 10:53:00
5:53 AM,55.0,46.0,72,30.22,10.0,Calm,Calm,-,N/A,,Overcast,0,2012-11-20 11:53:00
6:53 AM,54.0,48.9,83,30.24,10.0,Calm,Calm,-,N/A,,Overcast,0,2012-11-20 12:53:00
7:53 AM,55.0,46.9,74,30.24,10.0,Calm,Calm,-,N/A,,Overcast,0,2012-11-20 13:53:00
8:53 AM,59.0,45.0,60,30.24,10.0,SW,3.5,-,N/A,,Overcast,220,2012-11-20 14:53:00
9:53 AM,64.0,45.0,50,30.24,10.0,SW,5.8,-,N/A,,Mostly Cloudy,220,2012-11-20 15:53:00
10:53 AM,66.0,43.0,43,30.23,10.0,WSW,6.9,-,N/A,,Overcast,240,2012-11-20 16:53:00
11:53 AM,68.0,44.1,42,30.19,10.0,SW,4.6,-,N/A,,Overcast,230,2012-11-20 17:53:00
12:53 PM,70.0,44.1,39,30.17,10.0,WNW,8.1,-,N/A,,Partly Cloudy,290,2012-11-20 18:53:00
1:53 PM,72.0,45.0,38,30.15,10.0,WSW,6.9,-,N/A,,Clear,250,2012-11-20 19:53:00
2:53 PM,72.0,46.9,41,30.14,10.0,West,6.9,-,N/A,,Clear,260,2012-11-20 20:53:00
3:53 PM,70.0,48.0,46,30.13,10.0,SW,6.9,-,N/A,,Clear,230,2012-11-20 21:53:00
4:53 PM,66.0,46.9,50,30.14,10.0,SW,4.6,-,N/A,,Clear,230,2012-11-20 22:53:00
5:53 PM,60.1,46.0,60,30.14,4.0,SSW,3.5,-,N/A,,Haze,200,2012-11-20 23:53:00
6:53 PM,59.0,46.9,64,30.15,4.0,SW,4.6,-,N/A,,Haze,220,2012-11-21 00:53:00
7:53 PM,55.9,46.9,72,30.17,4.0,SSW,3.5,-,N/A,,Haze,210,2012-11-21 01:53:00
8:53 PM,55.0,46.9,74,30.17,4.0,SSW,4.6,-,N/A,,Haze,210,2012-11-21 02:53:00
9:53 PM,53.1,46.0,77,30.18,8.0,SW,3.5,-,N/A,,Clear,230,2012-11-21 03:53:00
10:53 PM,51.1,45.0,80,30.17,10.0,WSW,5.8,-,N/A,,Clear,250,2012-11-21 04:53:00
11:53 PM,51.1,46.0,83,30.17,10.0,West,4.6,-,N/A,,Clear,260,2012-11-21 05:53:00